createdAt,value
2018-06-02T00:00:07.988Z,21.45
2018-06-02T00:01:45.299Z,21.62
2018-06-02T00:03:22.507Z,21.60
2018-06-02T00:05:00.094Z,21.68
2018-06-02T00:06:36.460Z,21.79
2018-06-02T00:08:12.745Z,21.87
2018-06-02T00:09:49.199Z,21.63
2018-06-02T00:11:25.877Z,21.47
2018-06-02T00:13:02.916Z,21.33
2018-06-02T00:14:39.318Z,21.17
2018-06-02T00:16:17.018Z,21.12
2018-06-02T00:17:54.073Z,21.05
2018-06-02T00:19:33.012Z,20.91
2018-06-02T00:21:09.452Z,20.81
2018-06-02T00:22:47.205Z,20.76
2018-06-02T00:24:24.811Z,20.80
2018-06-02T00:26:01.112Z,20.84
2018-06-02T00:27:38.189Z,20.70
2018-06-02T00:29:14.472Z,20.75
2018-06-02T00:30:51.560Z,20.86
2018-06-02T00:32:28.658Z,20.72
2018-06-02T00:34:05.013Z,20.88
2018-06-02T00:35:41.249Z,20.95
2018-06-02T00:37:18.294Z,20.92
2018-06-02T00:38:55.696Z,20.91
2018-06-02T00:40:32.715Z,20.98
2018-06-02T00:42:09.740Z,20.95
2018-06-02T00:43:46.708Z,20.65
2018-06-02T00:45:24.629Z,20.73
2018-06-02T00:47:02.148Z,20.90
2018-06-02T00:48:38.963Z,20.89
2018-06-02T00:50:15.804Z,20.90
2018-06-02T00:51:52.225Z,21.02
2018-06-02T00:53:29.332Z,21.15
2018-06-02T00:55:09.916Z,21.06
2018-06-02T00:56:46.658Z,20.95
2018-06-02T00:58:22.947Z,20.76
2018-06-02T00:59:59.256Z,20.84
2018-06-02T01:01:35.990Z,20.95
2018-06-02T01:03:12.524Z,20.94
2018-06-02T01:04:49.649Z,20.91
2018-06-02T01:06:27.144Z,20.79
2018-06-02T01:08:04.130Z,20.70
2018-06-02T01:09:40.727Z,20.65
2018-06-02T01:11:17.310Z,20.60
2018-06-02T01:12:54.309Z,20.65
2018-06-02T01:14:30.632Z,20.65
2018-06-02T01:16:08.285Z,20.63
2018-06-02T01:17:44.549Z,20.65
2018-06-02T01:19:20.866Z,20.68
2018-06-02T01:20:57.166Z,20.75
2018-06-02T01:22:33.752Z,20.74
2018-06-02T01:24:10.031Z,20.73
2018-06-02T01:25:47.056Z,20.72
2018-06-02T01:27:23.486Z,20.82
2018-06-02T01:29:00.917Z,20.88
2018-06-02T01:30:37.423Z,20.85
2018-06-02T01:32:13.743Z,20.66
2018-06-02T01:33:49.992Z,20.71
2018-06-02T01:35:26.529Z,20.70
2018-06-02T01:37:03.444Z,20.65
2018-06-02T01:38:39.728Z,20.67
2018-06-02T01:40:16.131Z,20.70
2018-06-02T01:41:52.410Z,20.78
2018-06-02T01:43:28.653Z,20.82
2018-06-02T01:45:05.304Z,20.80
2018-06-02T01:46:44.260Z,20.83
2018-06-02T01:48:21.499Z,20.87
2018-06-02T01:49:57.765Z,20.97
2018-06-02T01:51:34.526Z,21.02
2018-06-02T01:53:11.900Z,21.08
2018-06-02T01:54:48.934Z,21.14
2018-06-02T01:56:25.236Z,21.21
2018-06-02T01:58:02.275Z,21.14
2018-06-02T01:59:39.789Z,21.05
2018-06-02T02:01:16.603Z,20.99
2018-06-02T02:02:52.844Z,20.86
2018-06-02T02:04:30.496Z,20.87
2018-06-02T02:06:07.454Z,20.93
2018-06-02T02:07:44.319Z,20.97
2018-06-02T02:09:21.157Z,20.88
2018-06-02T02:10:57.801Z,20.83
2018-06-02T02:12:36.190Z,20.87
2018-06-02T02:14:13.840Z,20.87
2018-06-02T02:15:50.231Z,20.93
2018-06-02T02:17:26.539Z,21.01
2018-06-02T02:19:04.057Z,20.98
2018-06-02T02:20:40.311Z,20.97
2018-06-02T02:22:16.685Z,20.97
2018-06-02T02:23:52.944Z,21.03
2018-06-02T02:25:30.269Z,21.08
2018-06-02T02:27:07.350Z,20.99
2018-06-02T02:28:43.608Z,20.89
2018-06-02T02:30:20.233Z,20.77
2018-06-02T02:31:57.749Z,20.98
2018-06-02T02:33:34.796Z,21.00
2018-06-02T02:35:11.652Z,21.14
2018-06-02T02:38:30.065Z,21.27
2018-06-02T02:40:06.509Z,21.41
2018-06-02T02:41:44.194Z,21.44
2018-06-02T02:43:20.450Z,21.44
2018-06-02T02:44:57.044Z,21.53
2018-06-02T02:46:33.672Z,21.46
2018-06-02T02:48:10.437Z,21.55
2018-06-02T02:49:46.664Z,21.61
2018-06-02T02:51:23.533Z,21.58
2018-06-02T02:52:59.999Z,21.67
2018-06-02T02:54:36.583Z,21.70
2018-06-02T02:56:13.755Z,21.66
2018-06-02T02:57:50.723Z,21.68
2018-06-02T02:59:27.414Z,21.49
2018-06-02T03:01:03.900Z,21.41
2018-06-02T03:02:40.858Z,21.51
2018-06-02T03:04:18.056Z,21.57
2018-06-02T03:05:54.749Z,21.43
2018-06-02T03:07:31.153Z,21.23
2018-06-02T03:09:09.011Z,20.98
2018-06-02T03:10:45.895Z,21.17
2018-06-02T03:12:22.677Z,21.45
2018-06-02T03:13:59.847Z,21.67
2018-06-02T03:15:36.568Z,21.77
2018-06-02T03:17:14.264Z,21.76
2018-06-02T03:18:51.156Z,21.58
2018-06-02T03:20:28.044Z,21.60
2018-06-02T03:22:04.650Z,21.50
2018-06-02T03:23:43.472Z,21.30
2018-06-02T03:25:20.122Z,21.19
2018-06-02T03:26:56.655Z,21.34
2018-06-02T03:28:33.225Z,21.60
2018-06-02T03:30:11.613Z,21.87
2018-06-02T03:31:48.080Z,21.99
2018-06-02T03:33:24.893Z,21.98
2018-06-02T03:35:01.376Z,21.85
2018-06-02T03:36:41.063Z,21.91
2018-06-02T03:38:19.140Z,22.16
2018-06-02T03:39:55.460Z,22.35
2018-06-02T03:41:31.776Z,22.31
2018-06-02T03:43:10.147Z,22.40
2018-06-02T03:44:46.436Z,22.47
2018-06-02T03:46:22.912Z,22.43
2018-06-02T03:47:59.985Z,22.51
2018-06-02T03:49:36.789Z,22.52
2018-06-02T03:51:13.245Z,22.47
2018-06-02T03:52:49.604Z,22.22
2018-06-02T03:54:26.905Z,22.11
2018-06-02T03:56:03.640Z,22.18
2018-06-02T03:57:39.888Z,21.89
2018-06-02T03:59:17.573Z,21.71
2018-06-02T04:00:54.075Z,21.52
2018-06-02T04:02:31.567Z,21.71
2018-06-02T04:04:08.669Z,21.93
2018-06-02T04:05:45.681Z,21.82
2018-06-02T04:07:22.182Z,21.99
2018-06-02T04:08:59.203Z,22.21
2018-06-02T04:10:35.838Z,22.31
2018-06-02T04:12:12.492Z,22.32
2018-06-02T04:13:50.083Z,22.20
2018-06-02T04:15:28.793Z,22.21
2018-06-02T04:17:06.145Z,22.07
2018-06-02T04:18:42.717Z,22.18
2018-06-02T04:20:19.736Z,22.09
2018-06-02T04:21:56.746Z,22.05
2018-06-02T04:23:33.713Z,22.19
2018-06-02T04:25:10.199Z,22.20
2018-06-02T04:26:46.809Z,22.00
2018-06-02T04:28:24.671Z,22.14
2018-06-02T04:30:01.404Z,22.16
2018-06-02T04:31:38.066Z,22.23
2018-06-02T04:33:14.669Z,22.25
2018-06-02T04:34:55.165Z,22.16
2018-06-02T04:36:31.706Z,22.22
2018-06-02T04:38:08.142Z,22.18
2018-06-02T04:39:44.749Z,22.25
2018-06-02T04:41:22.849Z,22.24
2018-06-02T04:42:59.188Z,22.29
2018-06-02T04:44:35.427Z,22.25
2018-06-02T04:46:11.904Z,22.21
2018-06-02T04:47:49.179Z,22.12
2018-06-02T04:49:25.426Z,21.95
2018-06-02T04:51:01.772Z,21.81
2018-06-02T04:52:38.049Z,21.87
2018-06-02T04:54:14.753Z,22.02
2018-06-02T04:55:52.722Z,22.21
2018-06-02T04:57:29.038Z,22.22
2018-06-02T04:59:06.060Z,22.17
2018-06-02T05:00:43.123Z,22.19
2018-06-02T05:02:20.053Z,22.17
2018-06-02T05:03:56.556Z,22.35
2018-06-02T05:05:32.943Z,22.44
2018-06-02T05:07:09.565Z,22.31
2018-06-02T05:08:45.843Z,22.05
2018-06-02T05:10:22.965Z,22.15
2018-06-02T05:11:59.195Z,22.22
2018-06-02T05:13:35.569Z,22.31
2018-06-02T05:15:11.932Z,22.42
2018-06-02T05:16:49.764Z,22.47
2018-06-02T05:18:26.019Z,22.46
2018-06-02T05:20:02.708Z,22.54
2018-06-02T05:21:39.748Z,22.60
2018-06-02T05:23:18.543Z,22.47
2018-06-02T05:24:55.039Z,22.54
2018-06-02T05:26:31.544Z,22.62
2018-06-02T05:28:07.852Z,22.52
2018-06-02T05:29:44.104Z,22.54
2018-06-02T05:31:21.144Z,22.40
2018-06-02T05:32:57.839Z,22.38
2018-06-02T05:34:34.443Z,22.44
2018-06-02T05:36:11.183Z,22.37
2018-06-02T05:37:48.071Z,22.28
2018-06-02T05:39:24.733Z,22.32
2018-06-02T05:41:01.027Z,22.25
2018-06-02T05:42:37.408Z,22.03
2018-06-02T05:44:14.458Z,21.96
2018-06-02T05:45:51.944Z,22.12
2018-06-02T05:47:28.331Z,22.33
2018-06-02T05:49:05.484Z,22.35
2018-06-02T05:50:41.841Z,22.43
2018-06-02T05:52:19.408Z,22.43
2018-06-02T05:53:56.440Z,22.52
2018-06-02T05:55:33.532Z,22.55
2018-06-02T05:57:09.827Z,22.33
2018-06-02T05:58:46.491Z,22.03
2018-06-02T06:00:25.518Z,21.52
2018-06-02T06:02:01.888Z,21.47
2018-06-02T06:03:38.284Z,21.88
2018-06-02T06:05:15.035Z,22.18
2018-06-02T06:06:52.431Z,22.17
2018-06-02T06:08:29.064Z,22.25
2018-06-02T06:10:05.961Z,22.23
2018-06-02T06:11:42.939Z,22.34
2018-06-02T06:13:20.105Z,22.38
2018-06-02T06:14:57.699Z,22.44
2018-06-02T06:16:34.398Z,22.43
2018-06-02T06:18:11.155Z,22.43
2018-06-02T06:19:48.952Z,22.51
2018-06-02T06:21:25.570Z,22.56
2018-06-02T06:23:02.456Z,22.18
2018-06-02T06:24:39.246Z,21.92
2018-06-02T06:26:16.567Z,21.93
2018-06-02T06:27:54.314Z,21.96
2018-06-02T06:29:31.053Z,21.99
2018-06-02T06:31:08.245Z,22.03
2018-06-02T06:32:44.581Z,21.97
2018-06-02T06:34:21.565Z,22.04
2018-06-02T06:35:58.666Z,21.94
2018-06-02T06:37:35.347Z,21.93
2018-06-02T06:39:12.205Z,21.98
2018-06-02T06:40:48.522Z,21.93
2018-06-02T06:42:25.543Z,21.84
2018-06-02T06:44:02.399Z,21.56
2018-06-02T06:45:39.509Z,21.37
2018-06-02T06:47:16.592Z,21.33
2018-06-02T06:48:52.965Z,21.21
2018-06-02T06:50:29.967Z,21.19
2018-06-02T06:52:07.118Z,20.76
2018-06-02T06:53:43.371Z,20.64
2018-06-02T06:55:20.967Z,20.77
2018-06-02T06:56:58.939Z,21.30
2018-06-02T06:58:35.187Z,21.52
2018-06-02T07:00:11.540Z,21.86
2018-06-02T07:01:48.145Z,21.94
2018-06-02T07:03:25.030Z,22.01
2018-06-02T07:05:01.457Z,21.99
2018-06-02T07:06:37.804Z,22.02
2018-06-02T07:08:14.102Z,22.06
2018-06-02T07:09:51.067Z,22.12
2018-06-02T07:11:27.399Z,22.06
2018-06-02T07:13:04.532Z,22.14
2018-06-02T07:14:41.003Z,21.99
2018-06-02T07:16:18.736Z,21.76
2018-06-02T07:17:55.789Z,21.68
2018-06-02T07:19:32.107Z,21.68
2018-06-02T07:21:08.392Z,21.69
2018-06-02T07:22:45.729Z,21.70
2018-06-02T07:24:24.441Z,21.49
2018-06-02T07:26:02.183Z,21.62
2018-06-02T07:27:38.799Z,21.71
2018-06-02T07:29:19.041Z,21.70
2018-06-02T07:30:55.913Z,21.88
2018-06-02T07:32:33.892Z,22.02
2018-06-02T07:34:10.199Z,22.16
2018-06-02T07:35:46.910Z,22.21
2018-06-02T07:37:23.890Z,22.30
2018-06-02T07:39:00.600Z,22.16
2018-06-02T07:40:37.009Z,21.98
2018-06-02T07:42:13.841Z,22.23
2018-06-02T07:43:50.543Z,22.44
2018-06-02T07:45:28.776Z,22.41
2018-06-02T07:47:06.900Z,22.50
2018-06-02T07:48:43.620Z,22.47
2018-06-02T07:50:20.537Z,22.49
2018-06-02T07:51:57.014Z,22.39
2018-06-02T07:53:34.195Z,22.28
2018-06-02T07:55:10.998Z,22.28
2018-06-02T07:56:47.521Z,22.14
2018-06-02T07:58:24.397Z,22.06
2018-06-02T08:00:01.420Z,21.98
2018-06-02T08:01:39.175Z,21.91
2018-06-02T08:03:16.304Z,21.76
2018-06-02T08:04:52.913Z,21.37
2018-06-02T08:06:29.276Z,21.30
2018-06-02T08:08:06.344Z,21.44
2018-06-02T08:09:42.705Z,21.59
2018-06-02T08:11:19.208Z,21.65
2018-06-02T08:12:55.515Z,21.79
2018-06-02T08:14:32.447Z,21.74
2018-06-02T08:16:09.851Z,21.67
2018-06-02T08:17:46.152Z,21.84
2018-06-02T08:19:23.375Z,21.94
2018-06-02T08:21:01.014Z,21.91
2018-06-02T08:22:37.294Z,22.12
2018-06-02T08:24:13.858Z,22.09
2018-06-02T08:25:50.471Z,22.06
2018-06-02T08:27:27.477Z,22.01
2018-06-02T08:29:03.892Z,22.02
2018-06-02T08:30:40.351Z,21.99
2018-06-02T08:32:17.421Z,22.24
2018-06-02T08:33:55.031Z,22.45
2018-06-02T08:35:32.105Z,22.52
2018-06-02T08:37:09.167Z,22.44
2018-06-02T08:38:46.268Z,22.33
2018-06-02T08:40:22.618Z,22.40
2018-06-02T08:41:59.900Z,22.51
2018-06-02T08:43:36.905Z,22.59
2018-06-02T08:45:17.625Z,22.59
2018-06-02T08:46:54.289Z,22.64
2018-06-02T08:48:30.624Z,22.73
2018-06-02T08:50:06.924Z,22.71
2018-06-02T08:51:43.707Z,22.66
2018-06-02T08:53:21.511Z,22.49
2018-06-02T08:54:57.907Z,22.29
2018-06-02T08:56:34.280Z,22.36
2018-06-02T08:58:10.932Z,22.16
2018-06-02T08:59:47.276Z,22.40
2018-06-02T09:01:23.815Z,22.42
2018-06-02T09:03:00.980Z,22.39
2018-06-02T09:04:38.557Z,22.33
2018-06-02T09:06:15.691Z,22.08
2018-06-02T09:07:52.042Z,21.79
2018-06-02T09:09:29.029Z,21.81
2018-06-02T09:11:06.285Z,22.02
2018-06-02T09:12:42.687Z,22.32
2018-06-02T09:14:19.369Z,22.58
2018-06-02T09:15:56.340Z,22.65
2018-06-02T09:17:33.124Z,22.66
2018-06-02T09:19:09.541Z,22.78
2018-06-02T09:20:45.901Z,22.92
2018-06-02T09:22:23.191Z,22.92
2018-06-02T09:23:59.784Z,23.14
2018-06-02T09:25:36.265Z,23.29
2018-06-02T09:27:12.630Z,23.43
2018-06-02T09:28:49.488Z,23.35
2018-06-02T09:30:27.990Z,23.32
2018-06-02T09:32:04.740Z,23.35
2018-06-02T09:33:40.984Z,23.39
2018-06-02T09:35:18.390Z,23.48
2018-06-02T09:36:55.372Z,23.55
2018-06-02T09:38:32.479Z,23.45
2018-06-02T09:40:08.753Z,23.30
2018-06-02T09:41:45.174Z,23.15
2018-06-02T09:43:23.187Z,22.88
2018-06-02T09:44:59.507Z,22.97
2018-06-02T09:46:37.020Z,23.08
2018-06-02T09:48:14.286Z,23.38
2018-06-02T09:49:51.026Z,23.44
2018-06-02T09:51:27.403Z,23.88
2018-06-02T09:53:04.050Z,24.13
2018-06-02T09:54:41.220Z,24.12
2018-06-02T09:56:17.889Z,24.06
2018-06-02T09:57:54.400Z,24.25
2018-06-02T09:59:30.732Z,24.33
2018-06-02T10:01:08.099Z,24.47
2018-06-02T10:02:44.831Z,24.53
2018-06-02T10:04:21.712Z,24.43
2018-06-02T10:05:58.059Z,24.07
2018-06-02T10:07:35.016Z,23.98
2018-06-02T10:09:11.741Z,23.96
2018-06-02T10:10:48.464Z,23.84
2018-06-02T10:12:24.859Z,24.01
2018-06-02T10:14:01.390Z,24.17
2018-06-02T10:15:38.340Z,24.16
2018-06-02T10:17:14.649Z,24.27
2018-06-02T10:18:50.985Z,24.24
2018-06-02T10:20:27.504Z,23.99
2018-06-02T10:22:04.535Z,24.02
2018-06-02T10:23:40.931Z,24.37
2018-06-02T10:25:18.734Z,24.58
2018-06-02T10:26:56.009Z,24.72
2018-06-02T10:28:32.944Z,24.50
2018-06-02T10:30:09.397Z,24.55
2018-06-02T10:31:46.028Z,24.49
2018-06-02T10:33:23.379Z,24.25
2018-06-02T10:35:03.702Z,24.34
2018-06-02T10:36:40.611Z,24.67
2018-06-02T10:38:16.891Z,24.87
2018-06-02T10:39:53.448Z,24.98
2018-06-02T10:41:30.048Z,24.99
2018-06-02T10:43:07.221Z,24.99
2018-06-02T10:44:43.610Z,24.97
2018-06-02T10:46:21.202Z,24.95
2018-06-02T10:47:57.796Z,24.99
2018-06-02T10:49:34.874Z,25.10
2018-06-02T10:51:11.168Z,25.14
2018-06-02T10:52:47.498Z,25.27
2018-06-02T10:54:24.998Z,25.23
2018-06-02T10:56:01.412Z,25.22
2018-06-02T10:57:38.672Z,25.14
2018-06-02T10:59:14.968Z,25.25
2018-06-02T11:00:51.924Z,25.21
2018-06-02T11:02:29.068Z,25.13
2018-06-02T11:04:05.504Z,25.13
2018-06-02T11:05:42.588Z,25.26
2018-06-02T11:07:19.150Z,25.24
2018-06-02T11:08:55.423Z,24.99
2018-06-02T11:10:31.836Z,25.15
2018-06-02T11:12:08.916Z,25.46
2018-06-02T11:13:45.681Z,25.69
2018-06-02T11:15:22.225Z,25.86
2018-06-02T11:16:59.640Z,25.59
2018-06-02T11:18:35.908Z,25.59
2018-06-02T11:20:12.695Z,25.55
2018-06-02T11:21:49.884Z,25.41
2018-06-02T11:23:26.243Z,25.18
2018-06-02T11:25:02.878Z,25.24
2018-06-02T11:26:39.128Z,25.36
2018-06-02T11:28:15.411Z,25.24
2018-06-02T11:29:53.283Z,25.20
2018-06-02T11:31:29.887Z,25.18
2018-06-02T11:33:07.439Z,24.90
2018-06-02T11:34:44.494Z,24.79
2018-06-02T11:36:20.841Z,24.71
2018-06-02T11:37:57.085Z,24.89
2018-06-02T11:39:33.776Z,25.06
2018-06-02T11:41:10.220Z,25.19
2018-06-02T11:42:46.470Z,25.16
2018-06-02T11:44:23.603Z,25.27
2018-06-02T11:46:00.732Z,25.33
2018-06-02T11:47:37.158Z,25.31
2018-06-02T11:49:13.689Z,25.49
2018-06-02T11:50:50.400Z,25.63
2018-06-02T11:52:26.952Z,25.78
2018-06-02T11:54:03.439Z,25.95
2018-06-02T11:55:40.085Z,25.98
2018-06-02T11:57:16.511Z,25.71
2018-06-02T11:58:53.929Z,25.67
2018-06-02T12:00:30.908Z,25.87
2018-06-02T12:02:07.480Z,25.92
2018-06-02T12:03:44.592Z,25.84
2018-06-02T12:05:22.561Z,25.82
2018-06-02T12:06:59.832Z,25.92
2018-06-02T12:08:36.293Z,26.05
2018-06-02T12:10:12.654Z,26.12
2018-06-02T12:11:49.468Z,26.20
2018-06-02T12:13:25.883Z,26.15
2018-06-02T12:15:02.452Z,26.28
2018-06-02T12:16:38.991Z,26.29
2018-06-02T12:18:16.389Z,25.97
2018-06-02T12:19:53.118Z,25.89
2018-06-02T12:21:29.685Z,25.71
2018-06-02T12:23:06.829Z,25.77
2018-06-02T12:24:46.678Z,25.78
2018-06-02T12:26:24.922Z,25.71
2018-06-02T12:28:06.645Z,25.74
2018-06-02T12:29:44.218Z,25.88
2018-06-02T12:31:21.961Z,26.01
2018-06-02T12:32:58.273Z,26.11
2018-06-02T12:34:35.349Z,26.03
2018-06-02T12:36:13.015Z,26.08
2018-06-02T12:37:50.141Z,26.06
2018-06-02T12:39:26.562Z,26.27
2018-06-02T12:41:03.693Z,26.17
2018-06-02T12:42:42.684Z,26.04
2018-06-02T12:44:19.303Z,26.20
2018-06-02T12:45:55.899Z,25.96
2018-06-02T12:47:33.295Z,25.77
2018-06-02T12:49:10.387Z,26.07
2018-06-02T12:50:47.825Z,26.17
2018-06-02T12:52:24.372Z,26.06
2018-06-02T12:54:00.810Z,26.09
2018-06-02T12:55:37.180Z,26.02
2018-06-02T12:57:14.286Z,26.03
2018-06-02T12:58:51.252Z,26.05
2018-06-02T13:00:30.186Z,26.02
2018-06-02T13:02:06.594Z,26.08
2018-06-02T13:03:43.897Z,26.10
2018-06-02T13:05:23.004Z,25.96
2018-06-02T13:07:02.130Z,25.98
2018-06-02T13:08:40.318Z,25.84
2018-06-02T13:10:19.118Z,26.00
2018-06-02T13:11:55.465Z,26.05
2018-06-02T13:13:33.131Z,26.15
2018-06-02T13:15:09.972Z,26.21
2018-06-02T13:16:48.847Z,26.30
2018-06-02T13:18:25.331Z,26.42
2018-06-02T13:20:02.105Z,26.55
2018-06-02T13:21:39.331Z,26.44
2018-06-02T13:23:16.976Z,26.56
2018-06-02T13:24:56.462Z,26.58
2018-06-02T13:26:35.983Z,26.40
2018-06-02T13:28:15.630Z,26.36
2018-06-02T13:29:55.936Z,26.38
2018-06-02T13:31:34.635Z,26.35
2018-06-02T13:33:13.128Z,26.48
2018-06-02T13:34:56.044Z,26.45
2018-06-02T13:36:33.134Z,26.29
2018-06-02T13:38:10.274Z,26.39
2018-06-02T13:39:46.602Z,26.58
2018-06-02T13:41:22.986Z,26.72
2018-06-02T13:42:59.588Z,26.75
2018-06-02T13:44:36.814Z,26.77
2018-06-02T13:46:13.466Z,26.76
2018-06-02T13:47:51.918Z,26.47
2018-06-02T13:49:29.157Z,26.54
2018-06-02T13:51:05.599Z,26.71
2018-06-02T13:52:44.318Z,26.70
2018-06-02T13:54:22.711Z,26.70
2018-06-02T13:56:00.972Z,26.70
2018-06-02T13:57:37.613Z,26.79
2018-06-02T13:59:13.949Z,26.79
2018-06-02T14:00:51.748Z,26.73
2018-06-02T14:02:28.985Z,26.75
2018-06-02T14:04:05.333Z,26.67
2018-06-02T14:05:41.755Z,26.52
2018-06-02T14:07:18.109Z,26.36
2018-06-02T14:08:54.860Z,26.22
2018-06-02T14:10:32.599Z,26.19
2018-06-02T14:12:09.055Z,26.24
2018-06-02T14:13:46.292Z,26.36
2018-06-02T14:15:24.200Z,26.36
2018-06-02T14:17:01.429Z,26.29
2018-06-02T14:18:38.118Z,26.21
2018-06-02T14:20:16.469Z,26.40
2018-06-02T14:21:54.000Z,26.50
2018-06-02T14:23:30.756Z,26.58
2018-06-02T14:26:54.427Z,26.54
2018-06-02T14:28:36.339Z,26.54
2018-06-02T14:30:14.564Z,26.48
2018-06-02T14:32:16.165Z,26.51
2018-06-02T14:33:59.729Z,26.63
2018-06-02T14:35:37.516Z,26.69
2018-06-02T14:37:16.434Z,26.45
2018-06-02T14:38:54.559Z,26.37
2018-06-02T14:40:37.839Z,26.38
2018-06-02T14:42:17.079Z,26.43
2018-06-02T14:43:56.549Z,26.27
2018-06-02T14:45:33.147Z,26.24
2018-06-02T14:47:12.525Z,26.10
2018-06-02T14:48:49.152Z,26.19
2018-06-02T14:50:27.139Z,26.19
2018-06-02T14:52:04.462Z,26.06
2018-06-02T14:53:42.497Z,26.00
2018-06-02T14:55:19.876Z,26.04
2018-06-02T14:56:58.762Z,26.16
2018-06-02T14:58:38.495Z,26.30
2018-06-02T15:00:18.155Z,26.20
2018-06-02T15:01:55.560Z,25.88
2018-06-02T15:03:33.231Z,25.74
2018-06-02T15:05:10.321Z,25.82
2018-06-02T15:06:50.038Z,25.53
2018-06-02T15:08:29.365Z,25.44
2018-06-02T15:10:06.270Z,25.49
2018-06-02T15:11:42.897Z,25.35
2018-06-02T15:13:20.932Z,25.26
2018-06-02T15:14:58.288Z,25.15
2018-06-02T15:16:34.884Z,25.24
2018-06-02T15:18:12.719Z,25.40
2018-06-02T15:19:50.586Z,25.18
2018-06-02T15:21:27.494Z,24.97
2018-06-02T15:23:04.245Z,25.19
2018-06-02T15:24:42.170Z,25.58
2018-06-02T15:26:19.312Z,25.52
2018-06-02T15:27:58.385Z,25.51
2018-06-02T15:29:45.559Z,25.25
2018-06-02T15:31:23.003Z,25.14
2018-06-02T15:33:03.433Z,25.20
2018-06-02T15:34:39.975Z,25.05
2018-06-02T15:36:17.633Z,25.02
2018-06-02T15:37:54.814Z,25.03
2018-06-02T15:39:32.416Z,25.09
2018-06-02T15:41:10.293Z,25.18
2018-06-02T15:42:47.593Z,25.31
2018-06-02T15:44:24.144Z,25.34
2018-06-02T15:46:00.520Z,25.36
2018-06-02T15:47:37.077Z,25.22
2018-06-02T15:49:13.549Z,25.24
2018-06-02T15:50:50.489Z,25.50
2018-06-02T15:52:27.498Z,25.59
2018-06-02T15:54:03.968Z,25.47
2018-06-02T15:55:41.151Z,25.65
2018-06-02T15:57:17.631Z,25.75
2018-06-02T15:58:54.606Z,25.94
2018-06-02T16:00:30.976Z,26.00
2018-06-02T16:02:07.336Z,25.99
2018-06-02T16:03:43.712Z,25.88
2018-06-02T16:05:20.414Z,25.77
2018-06-02T16:06:56.793Z,25.73
2018-06-02T16:08:33.467Z,25.78
2018-06-02T16:10:09.767Z,25.81
2018-06-02T16:11:47.246Z,25.86
2018-06-02T16:13:23.593Z,25.86
2018-06-02T16:14:59.954Z,25.84
2018-06-02T16:16:37.144Z,25.71
2018-06-02T16:18:14.001Z,25.64
2018-06-02T16:19:59.500Z,25.62
2018-06-02T16:21:36.525Z,25.66
2018-06-02T16:23:26.920Z,25.65
2018-06-02T16:25:04.684Z,25.57
2018-06-02T16:26:41.355Z,25.61
2018-06-02T16:28:18.937Z,25.77
2018-06-02T16:29:56.746Z,25.68
2018-06-02T16:31:33.812Z,25.35
2018-06-02T16:33:10.895Z,25.39
2018-06-02T16:34:47.674Z,25.32
2018-06-02T16:36:29.096Z,25.32
2018-06-02T16:38:20.066Z,25.26
2018-06-02T16:39:59.680Z,25.40
2018-06-02T16:41:36.844Z,25.40
2018-06-02T16:43:14.081Z,25.35
2018-06-02T16:44:50.711Z,25.48
2018-06-02T16:46:27.288Z,25.49
2018-06-02T16:48:03.702Z,25.29
2018-06-02T16:49:42.289Z,25.27
2018-06-02T16:51:19.680Z,25.16
2018-06-02T16:52:56.024Z,25.12
2018-06-02T16:54:32.577Z,25.09
2018-06-02T16:56:10.544Z,25.09
2018-06-02T16:57:47.894Z,25.15
2018-06-02T16:59:25.055Z,25.03
2018-06-02T17:01:02.348Z,25.13
2018-06-02T17:02:39.257Z,25.20
2018-06-02T17:04:15.762Z,25.02
2018-06-02T17:05:52.853Z,25.08
2018-06-02T17:07:31.209Z,25.24
2018-06-02T17:09:09.510Z,25.32
2018-06-02T17:10:46.446Z,25.38
2018-06-02T17:12:23.689Z,24.90
2018-06-02T17:14:03.606Z,24.57
2018-06-02T17:15:40.865Z,24.77
2018-06-02T17:17:18.031Z,24.73
2018-06-02T17:18:55.571Z,24.57
2018-06-02T17:20:32.598Z,25.01
2018-06-02T17:22:13.490Z,25.28
2018-06-02T17:23:56.631Z,25.22
2018-06-02T17:25:35.707Z,25.30
2018-06-02T17:27:12.353Z,25.16
2018-06-02T17:28:50.381Z,24.84
2018-06-02T17:30:26.823Z,25.03
2018-06-02T17:32:04.009Z,25.22
2018-06-02T17:33:41.240Z,25.40
2018-06-02T17:35:20.438Z,25.49
2018-06-02T17:37:20.533Z,25.53
2018-06-02T17:39:23.146Z,25.46
2018-06-02T17:41:01.838Z,25.24
2018-06-02T17:42:40.694Z,25.25
2018-06-02T17:44:20.661Z,25.07
2018-06-02T17:46:00.024Z,24.66
2018-06-02T17:47:37.458Z,24.94
2018-06-02T17:49:17.351Z,25.11
2018-06-02T17:50:55.748Z,25.18
2018-06-02T17:52:50.724Z,25.19
2018-06-02T17:54:30.070Z,24.94
2018-06-02T17:56:09.572Z,24.87
2018-06-02T17:57:51.053Z,25.01
2018-06-02T17:59:37.712Z,25.01
2018-06-02T18:01:15.963Z,24.97
2018-06-02T18:02:55.560Z,25.15
2018-06-02T18:04:35.857Z,25.14
2018-06-02T18:06:13.341Z,24.96
2018-06-02T18:07:55.067Z,24.65
2018-06-02T18:09:34.173Z,24.99
2018-06-02T18:11:16.500Z,25.27
2018-06-02T18:12:53.127Z,25.31
2018-06-02T18:14:31.537Z,25.19
2018-06-02T18:16:08.989Z,25.34
2018-06-02T18:17:50.258Z,25.39
2018-06-02T18:19:30.267Z,25.46
2018-06-02T18:21:14.442Z,25.30
2018-06-02T18:22:56.273Z,25.26
2018-06-02T18:24:46.474Z,25.26
2018-06-02T18:26:28.044Z,25.36
2018-06-02T18:28:07.167Z,25.34
2018-06-02T18:29:47.378Z,25.35
2018-06-02T18:31:27.297Z,25.12
2018-06-02T18:33:09.715Z,25.39
2018-06-02T18:34:49.351Z,25.52
2018-06-02T18:36:29.416Z,25.53
2018-06-02T18:38:12.280Z,25.35
2018-06-02T18:39:51.708Z,25.21
2018-06-02T18:41:28.506Z,25.11
2018-06-02T18:43:05.255Z,25.02
2018-06-02T18:44:46.937Z,24.78
2018-06-02T18:46:23.410Z,24.63
2018-06-02T18:48:00.826Z,24.62
2018-06-02T18:49:42.339Z,24.59
2018-06-02T18:51:21.506Z,24.66
2018-06-02T18:52:58.691Z,24.89
2018-06-02T18:54:35.855Z,25.08
2018-06-02T18:56:19.277Z,25.11
2018-06-02T18:57:57.203Z,25.13
2018-06-02T18:59:34.475Z,25.02
2018-06-02T19:01:11.101Z,24.94
2018-06-02T19:03:03.884Z,25.05
2018-06-02T19:04:40.548Z,25.14
2018-06-02T19:06:17.797Z,25.23
2018-06-02T19:07:55.980Z,24.89
2018-06-02T19:09:34.328Z,24.72
2018-06-02T19:11:10.849Z,24.94
2018-06-02T19:12:48.670Z,25.12
2018-06-02T19:14:26.517Z,25.20
2018-06-02T19:16:04.517Z,25.09
2018-06-02T19:17:46.239Z,24.98
2018-06-02T19:19:24.865Z,24.88
2018-06-02T19:21:08.890Z,24.81
2018-06-02T19:23:40.695Z,24.75
2018-06-02T19:25:26.638Z,24.70
2018-06-02T19:27:11.122Z,24.61
2018-06-02T19:28:50.406Z,24.72
2018-06-02T19:30:29.924Z,24.64
2018-06-02T19:32:13.785Z,24.72
2018-06-02T19:33:54.939Z,24.80
2018-06-02T19:35:33.779Z,24.89
2018-06-02T19:37:19.027Z,24.86
2018-06-02T19:41:02.697Z,24.92
2018-06-02T19:43:07.261Z,24.90
2018-06-02T19:44:46.481Z,24.77
2018-06-02T19:46:28.059Z,24.78
2018-06-02T19:48:07.692Z,24.72
2018-06-02T19:49:47.958Z,24.91
2018-06-02T19:51:27.779Z,24.95
2018-06-02T19:53:05.352Z,25.01
2018-06-02T19:54:42.473Z,25.01
2018-06-02T19:56:21.862Z,25.00
2018-06-02T19:58:00.687Z,24.92
2018-06-02T19:59:38.745Z,24.92
2018-06-02T20:01:16.189Z,24.90
2018-06-02T20:02:55.776Z,24.88
2018-06-02T20:04:34.734Z,24.92
2018-06-02T20:06:15.167Z,24.89
2018-06-02T20:07:54.703Z,24.95
2018-06-02T20:09:32.238Z,24.99
2018-06-02T20:11:12.605Z,24.96
2018-06-02T20:12:52.213Z,24.95
2018-06-02T20:14:32.767Z,24.93
2018-06-02T20:16:13.003Z,24.89
2018-06-02T20:18:02.302Z,24.78
2018-06-02T20:19:40.456Z,24.64
2018-06-02T20:23:42.084Z,24.24
2018-06-02T20:25:21.573Z,24.18
2018-06-02T20:27:00.599Z,24.17
2018-06-02T20:28:40.030Z,24.11
2018-06-02T20:30:21.316Z,24.03
2018-06-02T20:32:03.692Z,24.02
2018-06-02T20:33:44.253Z,24.07
2018-06-02T20:35:22.791Z,24.19
2018-06-02T20:37:00.634Z,24.18
2018-06-02T20:38:39.766Z,24.24
2018-06-02T20:40:17.189Z,24.28
2018-06-02T20:41:54.030Z,24.22
2018-06-02T20:43:30.368Z,23.90
2018-06-02T20:45:06.722Z,23.93
2018-06-02T20:46:43.345Z,24.17
2018-06-02T20:48:20.586Z,24.30
2018-06-02T20:49:57.363Z,24.13
2018-06-02T20:51:33.620Z,23.98
2018-06-02T20:53:10.143Z,24.04
2018-06-02T20:54:47.752Z,24.27
2018-06-02T20:56:24.053Z,24.43
2018-06-02T20:58:00.363Z,24.51
2018-06-02T20:59:37.517Z,24.65
2018-06-02T21:01:14.324Z,24.39
2018-06-02T21:02:50.577Z,24.31
2018-06-02T21:04:26.820Z,24.25
2018-06-02T21:06:03.271Z,24.32